createdAt,value
2022-08-25T04:58:16.555Z,100791.41
2022-08-25T05:00:49.807Z,100795.28
2022-08-25T05:03:19.547Z,100794.88
2022-08-25T05:05:52.543Z,100797.84
2022-08-25T05:08:20.283Z,100796.75
2022-08-25T05:10:47.873Z,100785.47
2022-08-25T05:13:15.581Z,100791.38
2022-08-25T05:15:53.965Z,100787.88
2022-08-25T05:18:23.326Z,100783.44
2022-08-25T05:20:52.166Z,100785.53
2022-08-25T05:23:24.487Z,100786.88
2022-08-25T05:25:53.104Z,100790.63
2022-08-25T05:28:23.324Z,100781.19
2022-08-25T05:34:07.682Z,100787.16
2022-08-25T05:36:36.099Z,100784.88
2022-08-25T05:39:04.524Z,100769.91
2022-08-25T05:41:34.026Z,100780.09
2022-08-25T05:44:05.638Z,100776.84
2022-08-25T05:46:36.295Z,100779.94
2022-08-25T05:49:34.320Z,100792.63
2022-08-25T05:52:04.750Z,100774.66
2022-08-25T06:11:30.724Z,100772.44
2022-08-25T06:14:01.426Z,100768.84
2022-08-25T06:16:54.973Z,100775.47
2022-08-25T06:19:28.111Z,100771.44
2022-08-25T06:21:58.752Z,100770.59
2022-08-25T06:24:30.384Z,100762.00
2022-08-25T06:27:06.944Z,100765.31
2022-08-25T06:29:47.534Z,100761.72
2022-08-25T06:32:15.350Z,100762.59
2022-08-25T06:34:42.962Z,100767.09
2022-08-25T06:37:13.248Z,100766.47
2022-08-25T06:39:40.969Z,100761.56
2022-08-25T06:42:09.919Z,100752.25
2022-08-25T06:44:37.624Z,100747.00
2022-08-25T06:47:05.458Z,100767.47
2022-08-25T06:49:36.030Z,100772.53
2022-08-25T06:52:04.376Z,100775.91
2022-08-25T06:54:31.866Z,100790.06
2022-08-25T06:56:59.362Z,100785.28
2022-08-25T06:59:32.186Z,100790.22
2022-08-25T07:02:00.880Z,100781.63
2022-08-25T07:04:31.377Z,100782.13
2022-08-25T07:06:59.165Z,100783.81
2022-08-25T07:09:26.657Z,100783.06
2022-08-25T07:11:54.444Z,100781.22
2022-08-25T07:14:22.276Z,100786.16
2022-08-25T07:16:50.501Z,100772.28
2022-08-25T07:19:23.043Z,100783.47
2022-08-25T07:21:53.270Z,100785.56
2022-08-25T07:24:21.627Z,100774.56
2022-08-25T07:26:50.008Z,100775.81
2022-08-25T07:29:32.204Z,100770.41
2022-08-25T07:32:01.985Z,100764.09
2022-08-25T07:34:52.150Z,100759.19
2022-08-25T07:40:22.543Z,100766.69
2022-08-25T07:42:51.938Z,100763.84
2022-08-25T07:45:23.180Z,100768.47
2022-08-25T07:47:52.339Z,100760.84
2022-08-25T07:50:22.899Z,100774.53
2022-08-25T07:52:55.252Z,100769.59
2022-08-25T07:55:27.812Z,100772.34
2022-08-25T07:57:57.326Z,100765.38
2022-08-25T08:00:28.025Z,100767.53
2022-08-25T08:02:56.648Z,100772.69
2022-08-25T08:05:25.002Z,100783.09
2022-08-25T08:07:53.666Z,100778.63
2022-08-25T08:10:47.995Z,100768.91
2022-08-25T08:13:11.115Z,100778.13
2022-08-25T08:15:43.126Z,100767.47
2022-08-25T08:18:11.801Z,100774.13
2022-08-25T08:20:46.438Z,100770.63
2022-08-25T08:23:14.900Z,100776.97
2022-08-25T08:25:42.339Z,100773.03
2022-08-25T08:28:10.863Z,100782.41
2022-08-25T08:30:38.748Z,100765.31
2022-08-25T08:33:11.591Z,100769.28
2022-08-25T08:35:40.047Z,100766.19
2022-08-25T08:38:14.911Z,100777.84
2022-08-25T08:42:07.721Z,100774.09
2022-08-25T08:44:42.126Z,100776.53
2022-08-25T08:47:40.457Z,100776.31
2022-08-25T08:50:23.991Z,100768.53
2022-08-25T08:53:02.361Z,100767.78
2022-08-25T08:55:33.947Z,100764.19
2022-08-25T08:58:08.952Z,100764.72
2022-08-25T09:00:52.070Z,100773.97
2022-08-25T09:03:41.956Z,100768.31
2022-08-25T09:06:22.487Z,100755.75
2022-08-25T09:08:50.327Z,100753.84
2022-08-25T09:11:59.262Z,100757.28
2022-08-25T09:14:39.874Z,100745.59
2022-08-25T09:17:18.264Z,100753.38
2022-08-25T09:20:31.009Z,100740.53
2022-08-25T09:23:09.824Z,100732.69
2022-08-25T09:25:54.009Z,100743.28
2022-08-25T09:28:36.694Z,100745.03
2022-08-25T09:31:29.492Z,100725.00
2022-08-25T09:34:03.589Z,100729.41
2022-08-25T09:36:37.539Z,100732.34
2022-08-25T09:39:06.713Z,100720.22
2022-08-25T09:41:51.467Z,100730.50
2022-08-25T09:44:32.035Z,100738.88
2022-08-25T09:47:08.253Z,100727.63
2022-08-25T09:49:47.273Z,100725.19
2022-08-25T09:52:41.841Z,100725.47
2022-08-25T09:55:09.521Z,100721.31
2022-08-25T09:57:43.430Z,100722.34
2022-08-25T10:00:25.271Z,100717.81
2022-08-25T10:03:11.794Z,100701.16
2022-08-25T10:05:59.422Z,100708.28
2022-08-25T10:08:37.520Z,100696.22
2022-08-25T10:11:16.559Z,100702.56
2022-08-25T10:13:51.834Z,100701.31
2022-08-25T10:16:25.509Z,100701.88
2022-08-25T10:19:22.633Z,100699.53
2022-08-25T10:22:05.618Z,100698.38
2022-08-25T10:24:33.842Z,100696.53
2022-08-25T10:27:16.840Z,100694.97
2022-08-25T10:30:02.957Z,100692.28
2022-08-25T10:32:31.133Z,100694.94
2022-08-25T10:35:03.477Z,100690.94
2022-08-25T10:37:52.576Z,100686.56
2022-08-25T10:40:49.363Z,100673.63
2022-08-25T10:43:28.718Z,100675.50
2022-08-25T10:46:02.331Z,100671.81
2022-08-25T10:48:56.191Z,100664.88
2022-08-25T10:51:36.135Z,100663.97
2022-08-25T10:54:13.715Z,100674.50
2022-08-25T10:56:46.093Z,100660.19
2022-08-25T10:59:17.405Z,100666.41
2022-08-25T11:01:53.567Z,100669.25
2022-08-25T11:04:36.507Z,100659.19
2022-08-25T11:07:10.948Z,100654.63
2022-08-25T11:09:41.600Z,100645.31
2022-08-25T11:12:15.231Z,100647.03
2022-08-25T11:14:52.109Z,100646.91
2022-08-25T11:17:35.900Z,100643.63
2022-08-25T11:20:15.091Z,100640.53
2022-08-25T11:23:11.322Z,100637.00
2022-08-25T11:25:44.002Z,100625.25
2022-08-25T11:28:32.494Z,100630.22
2022-08-25T11:31:02.260Z,100624.38
2022-08-25T11:33:31.071Z,100626.97
2022-08-25T11:36:11.321Z,100618.81
2022-08-25T11:38:42.369Z,100617.44
2022-08-25T11:41:21.601Z,100599.22
2022-08-25T11:44:20.678Z,100604.06
2022-08-25T11:47:21.165Z,100610.38
2022-08-25T11:50:02.324Z,100607.97
2022-08-25T11:52:46.922Z,100608.81
2022-08-25T11:55:30.027Z,100608.16
2022-08-25T11:58:23.530Z,100601.16
2022-08-25T12:00:55.003Z,100596.19
2022-08-25T12:03:34.384Z,100594.97
2022-08-25T12:06:15.911Z,100594.63
2022-08-25T12:09:08.030Z,100597.44
2022-08-25T12:11:52.340Z,100589.00
2022-08-25T12:14:22.514Z,100600.31
2022-08-25T12:16:56.870Z,100595.63
2022-08-25T12:19:44.253Z,100590.03
2022-08-25T12:22:11.603Z,100584.69
2022-08-25T12:24:48.776Z,100583.88
2022-08-25T12:27:28.301Z,100588.75
2022-08-25T12:30:18.631Z,100585.66
2022-08-25T12:33:13.858Z,100583.31
2022-08-25T12:35:57.856Z,100578.19
2022-08-25T12:38:28.794Z,100585.19
2022-08-25T12:41:06.826Z,100577.53
2022-08-25T12:43:40.149Z,100580.25
2022-08-25T12:46:21.845Z,100570.31
2022-08-25T12:49:26.479Z,100571.75
2022-08-25T12:52:01.886Z,100570.69
2022-08-25T12:54:57.638Z,100575.47
2022-08-25T12:57:50.019Z,100573.56
2022-08-25T13:03:04.007Z,100579.50
2022-08-25T13:05:47.949Z,100566.31
2022-08-25T13:08:48.050Z,100562.66
2022-08-25T13:11:40.889Z,100565.00
2022-08-25T13:14:18.154Z,100563.97
2022-08-25T13:17:01.374Z,100558.13
2022-08-25T13:19:35.223Z,100567.38
2022-08-25T13:22:19.436Z,100552.84
2022-08-25T13:24:50.945Z,100552.69
2022-08-25T13:27:26.642Z,100555.31
2022-08-25T13:30:04.033Z,100554.09
2022-08-25T13:32:36.988Z,100554.72
2022-08-25T13:35:14.706Z,100550.22
2022-08-25T13:37:45.150Z,100539.25
2022-08-25T13:40:27.875Z,100546.53
2022-08-25T13:42:59.915Z,100538.22
2022-08-25T13:45:31.949Z,100540.31
2022-08-25T13:47:59.540Z,100539.16
2022-08-25T13:50:27.098Z,100541.28
2022-08-25T13:53:11.271Z,100539.69
2022-08-25T13:55:51.664Z,100532.00
2022-08-25T13:58:24.651Z,100524.44
2022-08-25T14:01:22.331Z,100521.66
2022-08-25T14:04:22.656Z,100522.38
2022-08-25T14:07:12.061Z,100519.63
2022-08-25T14:09:58.229Z,100519.28
2022-08-25T14:12:46.432Z,100518.13
2022-08-25T14:15:16.951Z,100524.38
2022-08-25T14:17:48.673Z,100514.19
2022-08-25T14:20:28.959Z,100525.66
2022-08-25T14:23:10.042Z,100521.91
2022-08-25T14:25:42.300Z,100513.19
2022-08-25T14:28:16.945Z,100519.66
2022-08-25T14:30:54.419Z,100508.41
2022-08-25T14:33:28.202Z,100516.63
2022-08-25T14:35:58.957Z,100512.88
2022-08-25T14:38:26.408Z,100505.22
2022-08-25T14:40:54.763Z,100504.19
2022-08-25T14:43:31.502Z,100506.44
2022-08-25T14:46:03.167Z,100502.38
2022-08-25T14:48:40.899Z,100498.28
2022-08-25T14:51:12.052Z,100493.47
2022-08-25T14:53:40.206Z,100496.72
2022-08-25T14:56:10.508Z,100498.59
2022-08-25T14:58:48.423Z,100507.34
2022-08-25T15:01:29.397Z,100503.28
2022-08-25T15:04:03.573Z,100497.84
2022-08-25T15:06:31.911Z,100496.97
2022-08-25T15:09:08.070Z,100499.66
2022-08-25T15:11:36.528Z,100493.88
2022-08-25T15:14:15.644Z,100493.97
2022-08-25T15:16:47.628Z,100484.44
2022-08-25T15:19:19.389Z,100487.34
2022-08-25T15:21:48.168Z,100477.03
2022-08-25T15:24:18.068Z,100485.81
2022-08-25T15:26:59.909Z,100477.25
2022-08-25T15:29:30.356Z,100476.31
2022-08-25T15:32:00.088Z,100469.44
2022-08-25T15:34:28.740Z,100473.81
2022-08-25T15:37:07.609Z,100474.34
2022-08-25T15:39:36.077Z,100469.47
2022-08-25T15:42:05.421Z,100469.34
2022-08-25T15:44:33.984Z,100475.06
2022-08-25T15:47:03.741Z,100471.75
2022-08-25T15:49:31.564Z,100464.94
2022-08-25T15:51:59.961Z,100469.78
2022-08-25T15:54:28.591Z,100470.22
2022-08-25T15:56:58.574Z,100460.06
2022-08-25T15:59:28.280Z,100458.63
2022-08-25T16:01:55.897Z,100459.34
2022-08-25T16:04:25.399Z,100445.91
2022-08-25T16:06:54.235Z,100446.63
2022-08-25T16:09:23.638Z,100451.75
2022-08-25T16:11:56.108Z,100442.78
2022-08-25T16:14:27.632Z,100442.94
2022-08-25T16:16:58.489Z,100427.81
2022-08-25T16:19:28.354Z,100448.56
2022-08-25T16:21:56.409Z,100437.78
2022-08-25T16:24:24.316Z,100426.94
2022-08-25T16:26:52.306Z,100432.50
2022-08-25T16:29:23.199Z,100424.69
2022-08-25T16:31:54.873Z,100423.84
2022-08-25T16:34:24.608Z,100424.69
2022-08-25T16:36:56.177Z,100432.84
2022-08-25T16:39:24.666Z,100426.84
2022-08-25T16:41:52.748Z,100415.56
2022-08-25T16:44:22.830Z,100419.13
2022-08-25T16:46:54.283Z,100418.00
2022-08-25T16:49:24.501Z,100415.22
2022-08-25T16:51:57.181Z,100411.22
2022-08-25T16:54:44.939Z,100416.28
2022-08-25T16:57:12.988Z,100411.06
2022-08-25T16:59:43.770Z,100400.66
2022-08-25T17:02:12.248Z,100398.88
2022-08-25T17:04:40.725Z,100396.75
2022-08-25T17:07:08.299Z,100382.75
2022-08-25T17:09:36.360Z,100385.78
2022-08-25T17:12:05.496Z,100379.75
2022-08-25T17:14:33.014Z,100379.75
2022-08-25T17:17:00.929Z,100389.47
2022-08-25T17:19:28.427Z,100381.50
2022-08-25T17:21:55.980Z,100392.31
2022-08-25T17:24:29.701Z,100389.09
2022-08-25T17:27:00.208Z,100381.56
2022-08-25T17:29:29.337Z,100380.88
2022-08-25T17:31:57.596Z,100390.88
2022-08-25T17:34:28.660Z,100381.25
2022-08-25T17:36:57.484Z,100386.78
2022-08-25T17:39:25.956Z,100386.13
2022-08-25T17:41:53.895Z,100395.94
2022-08-25T17:44:21.468Z,100393.75
2022-08-25T17:46:49.053Z,100397.16
2022-08-25T17:49:17.694Z,100403.13
2022-08-25T17:51:45.431Z,100391.00
2022-08-25T17:54:13.370Z,100398.41
2022-08-25T17:56:41.300Z,100397.78
2022-08-25T17:59:09.236Z,100392.63
2022-08-25T18:01:40.132Z,100396.06
2022-08-25T18:04:18.023Z,100404.69
2022-08-25T18:06:48.515Z,100406.63
2022-08-25T18:09:17.492Z,100403.66
2022-08-25T18:11:45.977Z,100408.44
2022-08-25T18:14:16.816Z,100408.94
2022-08-25T18:16:45.223Z,100417.19
2022-08-25T18:19:14.239Z,100408.78
2022-08-25T18:21:43.431Z,100415.41
2022-08-25T18:24:13.283Z,100423.81
2022-08-25T18:26:40.946Z,100419.81
2022-08-25T18:29:13.051Z,100419.97
2022-08-25T18:31:41.801Z,100428.19
2022-08-25T18:34:11.764Z,100425.34
2022-08-25T18:36:40.988Z,100425.00
2022-08-25T18:39:29.559Z,100425.44
2022-08-25T18:42:01.542Z,100423.91
2022-08-25T18:44:29.205Z,100426.47
2022-08-25T18:46:56.642Z,100430.69
2022-08-25T18:49:26.878Z,100431.44
2022-08-25T18:51:56.451Z,100436.63
2022-08-25T18:54:24.204Z,100437.03
2022-08-25T18:56:53.199Z,100436.75
2022-08-25T18:59:23.779Z,100441.97
2022-08-25T19:01:53.927Z,100448.09
2022-08-25T19:04:28.306Z,100445.25
2022-08-25T19:07:01.258Z,100455.69
2022-08-25T19:09:30.549Z,100448.56
2022-08-25T19:11:59.141Z,100445.00
2022-08-25T19:14:26.726Z,100457.53
2022-08-25T19:16:54.942Z,100469.72
2022-08-25T19:19:24.124Z,100464.59
2022-08-25T19:21:51.805Z,100468.72
2022-08-25T19:24:20.065Z,100462.06
2022-08-25T19:26:50.447Z,100468.00
2022-08-25T19:29:21.967Z,100467.56
2022-08-25T19:31:49.671Z,100471.63
2022-08-25T19:34:28.358Z,100479.63
2022-08-25T19:37:01.925Z,100479.22
2022-08-25T19:39:34.144Z,100487.19
2022-08-25T19:42:03.268Z,100479.94
2022-08-25T19:44:32.327Z,100482.03
2022-08-25T19:46:59.957Z,100480.56
2022-08-25T19:49:31.529Z,100484.88
2022-08-25T19:52:02.203Z,100488.34
2022-08-25T19:54:35.574Z,100488.06
2022-08-25T19:57:05.211Z,100494.13
2022-08-25T19:59:42.438Z,100494.97
2022-08-25T20:02:18.056Z,100505.00
2022-08-25T20:04:49.935Z,100495.34
2022-08-25T20:07:23.723Z,100498.31
2022-08-25T20:09:53.610Z,100497.38
2022-08-25T20:12:23.673Z,100496.44
2022-08-25T20:14:53.124Z,100503.69
2022-08-25T20:17:24.879Z,100500.91
2022-08-25T20:19:59.322Z,100511.47
2022-08-25T20:22:29.395Z,100508.91
2022-08-25T20:25:09.464Z,100508.25
2022-08-25T20:27:44.489Z,100508.81
2022-08-25T20:30:22.845Z,100508.16
2022-08-25T20:32:52.163Z,100507.72
2022-08-25T20:35:20.611Z,100506.75
2022-08-25T20:37:56.607Z,100510.72
2022-08-25T20:40:26.562Z,100506.75
2022-08-25T20:42:55.695Z,100504.16
2022-08-25T20:45:23.696Z,100507.19
2022-08-25T20:47:51.613Z,100511.81
2022-08-25T20:50:19.644Z,100516.88
2022-08-25T20:52:48.582Z,100519.38
2022-08-25T20:55:17.571Z,100518.53
2022-08-25T20:57:46.717Z,100517.00
2022-08-25T21:00:15.706Z,100524.53
2022-08-25T21:02:46.227Z,100514.75
2022-08-25T21:05:14.380Z,100529.41
2022-08-25T21:07:42.125Z,100524.88
2022-08-25T21:10:14.313Z,100536.63
2022-08-25T21:12:45.256Z,100532.41
2022-08-25T21:15:13.771Z,100534.16
2022-08-25T21:17:50.621Z,100537.13
2022-08-25T21:20:18.437Z,100527.03
2022-08-25T21:22:45.865Z,100523.03
2022-08-25T21:25:13.795Z,100528.50
2022-08-25T21:27:41.391Z,100530.63
2022-08-25T21:30:12.228Z,100524.00
2022-08-25T21:32:39.861Z,100526.22
2022-08-25T21:35:30.971Z,100533.28
2022-08-25T21:37:59.128Z,100524.31
2022-08-25T21:40:28.696Z,100528.69
2022-08-25T21:42:56.144Z,100533.81
2022-08-25T21:45:23.801Z,100538.88
2022-08-25T21:47:51.910Z,100538.19
2022-08-25T21:50:20.531Z,100539.63
2022-08-25T21:52:48.345Z,100542.13
2022-08-25T21:55:22.067Z,100534.25
2022-08-25T21:57:50.318Z,100541.16
2022-08-25T22:00:19.112Z,100544.16
2022-08-25T22:02:49.642Z,100534.34
2022-08-25T22:05:17.240Z,100545.13
2022-08-25T22:07:45.181Z,100541.13
2022-08-25T22:10:17.608Z,100542.16
2022-08-25T22:12:47.462Z,100550.00
2022-08-25T22:15:17.854Z,100542.06
2022-08-25T22:17:48.088Z,100544.47
2022-08-25T22:20:17.625Z,100547.41
2022-08-25T22:22:45.084Z,100546.22
2022-08-25T22:25:13.080Z,100546.78
2022-08-25T22:27:40.559Z,100553.50
2022-08-25T22:30:08.429Z,100550.31
2022-08-25T22:32:36.116Z,100554.34
2022-08-25T22:35:06.028Z,100566.28
2022-08-25T22:37:35.376Z,100561.94
2022-08-25T22:40:03.319Z,100564.03
2022-08-25T22:42:31.475Z,100560.50
2022-08-25T22:44:58.937Z,100560.44
2022-08-25T22:47:26.437Z,100559.94
2022-08-25T22:49:55.457Z,100560.97
2022-08-25T22:52:31.975Z,100563.66
2022-08-25T22:55:02.913Z,100560.44
2022-08-25T22:57:30.804Z,100561.81
2022-08-25T22:59:59.268Z,100554.53
2022-08-25T23:02:30.152Z,100552.66
2022-08-25T23:04:58.099Z,100552.88
2022-08-25T23:07:29.057Z,100551.25
2022-08-25T23:09:59.668Z,100546.78
2022-08-25T23:12:27.127Z,100541.69
2022-08-25T23:14:57.437Z,100539.59
2022-08-25T23:17:26.762Z,100540.69
2022-08-25T23:19:54.232Z,100537.25
2022-08-25T23:22:22.681Z,100524.97
2022-08-25T23:24:52.543Z,100524.69
2022-08-25T23:27:22.029Z,100528.94
2022-08-25T23:29:50.906Z,100532.84
2022-08-25T23:32:18.719Z,100536.09
2022-08-25T23:34:47.250Z,100535.13
2022-08-25T23:37:18.450Z,100532.66
2022-08-25T23:39:49.411Z,100531.16
2022-08-25T23:42:19.357Z,100522.31
2022-08-25T23:44:48.194Z,100525.81
2022-08-25T23:47:17.000Z,100522.16
2022-08-25T23:49:45.540Z,100523.78
2022-08-25T23:52:17.131Z,100518.31
2022-08-25T23:54:45.411Z,100516.03
2022-08-25T23:57:13.063Z,100509.00
2022-08-25T23:59:40.521Z,100505.31
